Aviation Digital Data Service (ADDS)

Output produced by METARs form (0620 UTC 19 February 2019)
found at http://www.aviationweather.gov/metar/data/
 
Forecast for: LTAC (ANKARA/ESENBOGA , TR)
Text: TAF LTAC 190440Z 1906/2006 VRB02KT CAVOK
Forecast period: 0600 to 0700 UTC 19 February 2019
Forecast type: FROM: standard forecast or significant change
Winds: variable direction winds at 2 MPH (2 knots; 1.0 m/s)
Visibility: 6 or more miles 10+ km)
Ceiling: unknown
Clouds: missing
Weather: NSW  (no significant weather)
Text: BECMG 1907/1909 FEW040
Forecast period: 0700 to 1400 UTC 19 February 2019
Forecast type: BECOMING: Conditions expected to become as follows by 0900 UTC 19 February 2019
Winds: variable direction winds at 2 MPH (2 knots; 1.0 m/s)
Visibility: 6 or more miles 10+ km)
Ceiling: at least 12,000 feet AGL
Clouds: few clouds at 4000 feet AGL
Weather: NSW  (no significant weather)
Text: BECMG 1914/1916 CAVOK
Forecast period: 1400 UTC 19 February 2019 to 0600 UTC 20 February 2019
Forecast type: BECOMING: Conditions expected to become as follows by 1600 UTC 19 February 2019
Winds: variable direction winds at 2 MPH (2 knots; 1.0 m/s)
Visibility: 6 or more miles 10+ km)
Ceiling: unknown
Clouds: missing
Weather: NSW  (no significant weather)